createdAt,value
2018-03-27T00:02:22.661Z,47.50
2018-03-27T00:07:29.937Z,50.70
2018-03-27T00:09:56.992Z,47.60
2018-03-27T00:12:24.043Z,45.60
2018-03-27T00:14:53.935Z,44.50
2018-03-27T00:17:21.080Z,46.30
2018-03-27T00:19:48.112Z,46.47
2018-03-27T00:22:15.156Z,48.93
2018-03-27T00:24:43.044Z,47.37
2018-03-27T00:27:10.652Z,48.33
2018-03-27T00:29:49.611Z,49.80
2018-03-27T00:32:28.376Z,49.73
2018-03-27T00:35:07.215Z,55.70
2018-03-27T00:37:46.091Z,49.00
2018-03-27T00:40:25.051Z,46.57
2018-03-27T00:45:34.028Z,49.40
2018-03-27T00:48:01.572Z,52.03
2018-03-27T00:50:28.604Z,49.03
2018-03-27T00:52:55.676Z,55.37
2018-03-27T00:55:24.957Z,53.03
2018-03-27T00:57:52.845Z,54.13
2018-03-27T01:00:20.387Z,49.97
2018-03-27T01:02:47.431Z,50.23
2018-03-27T01:05:15.864Z,51.67
2018-03-27T01:07:42.898Z,53.57
2018-03-27T01:10:09.923Z,54.17
2018-03-27T01:12:36.952Z,56.30
2018-03-27T01:15:04.026Z,54.07
2018-03-27T01:17:31.457Z,54.70
2018-03-27T01:19:58.483Z,55.40
2018-03-27T01:22:25.573Z,53.97
2018-03-27T01:27:30.824Z,61.80
2018-03-27T01:29:58.824Z,59.67
2018-03-27T01:32:25.857Z,53.40
2018-03-27T01:34:52.934Z,55.47
2018-03-27T01:37:19.977Z,54.07
2018-03-27T01:39:47.988Z,57.07
2018-03-27T01:42:15.086Z,57.70
2018-03-27T01:44:43.055Z,60.47
2018-03-27T01:47:10.084Z,57.00
2018-03-27T01:49:37.183Z,61.23
2018-03-27T01:54:46.062Z,69.10
2018-03-27T01:57:13.098Z,62.10
2018-03-27T01:59:40.947Z,65.90
2018-03-27T02:02:08.990Z,61.57
2018-03-27T02:04:36.033Z,62.87
2018-03-27T02:07:03.065Z,66.07
2018-03-27T02:09:30.111Z,55.77
2018-03-27T02:11:57.129Z,60.67
2018-03-27T02:14:24.407Z,63.00
2018-03-27T02:16:52.870Z,60.77
2018-03-27T02:19:19.886Z,69.40
2018-03-27T02:21:47.509Z,72.23
2018-03-27T02:24:15.856Z,68.90
2018-03-27T02:26:42.891Z,79.80
2018-03-27T02:29:09.995Z,82.20
2018-03-27T02:31:37.910Z,72.37
2018-03-27T02:34:04.955Z,68.80
2018-03-27T02:36:32.002Z,73.70
2018-03-27T02:38:59.073Z,71.87
2018-03-27T02:41:26.100Z,74.67
2018-03-27T02:43:53.152Z,69.27
2018-03-27T02:46:20.664Z,70.07
2018-03-27T02:48:47.694Z,67.50
2018-03-27T02:51:15.727Z,65.90
2018-03-27T02:53:43.782Z,67.77
2018-03-27T02:58:37.892Z,64.67
2018-03-27T03:01:04.982Z,60.93
2018-03-27T03:03:32.532Z,74.77
2018-03-27T03:05:59.671Z,67.33
2018-03-27T03:08:26.766Z,60.17
2018-03-27T03:10:53.804Z,60.77
2018-03-27T03:13:20.845Z,65.90
2018-03-27T03:18:26.460Z,76.85
2018-03-27T03:20:53.562Z,72.87
2018-03-27T03:23:22.408Z,76.03
2018-03-27T03:25:50.350Z,65.17
2018-03-27T03:28:17.908Z,72.07
2018-03-27T03:30:45.800Z,70.97
2018-03-27T03:33:12.836Z,72.77
2018-03-27T03:35:39.896Z,72.07
2018-03-27T03:38:10.188Z,78.70
2018-03-27T03:40:37.220Z,71.13
2018-03-27T03:43:05.259Z,77.93
2018-03-27T03:45:33.241Z,71.50
2018-03-27T03:48:01.268Z,73.73
2018-03-27T03:50:28.343Z,82.03
2018-03-27T03:52:55.382Z,75.07
2018-03-27T03:55:22.440Z,81.03
2018-03-27T03:57:49.544Z,77.90
2018-03-27T04:00:17.556Z,75.27
2018-03-27T04:02:44.589Z,70.83
2018-03-27T04:05:11.658Z,74.57
2018-03-27T04:07:38.691Z,79.33
2018-03-27T04:10:05.715Z,77.77
2018-03-27T04:12:32.779Z,77.53
2018-03-27T04:14:59.860Z,74.77
2018-03-27T04:17:26.894Z,73.60
2018-03-27T04:19:53.975Z,68.97
2018-03-27T04:22:21.477Z,67.23
2018-03-27T04:24:48.508Z,69.83
2018-03-27T04:27:15.583Z,62.87
2018-03-27T04:29:45.290Z,65.13
2018-03-27T04:32:12.347Z,67.90
2018-03-27T04:34:39.406Z,71.73
2018-03-27T04:37:06.448Z,67.53
2018-03-27T04:39:34.205Z,68.37
2018-03-27T04:44:40.207Z,78.55
2018-03-27T04:47:08.899Z,70.37
2018-03-27T04:49:35.941Z,72.70
2018-03-27T04:52:03.007Z,73.50
2018-03-27T04:54:30.606Z,75.47
2018-03-27T04:56:58.238Z,64.87
2018-03-27T04:59:25.288Z,72.37
2018-03-27T05:01:52.358Z,71.43
2018-03-27T05:04:19.375Z,77.80
2018-03-27T05:06:46.416Z,76.20
2018-03-27T05:09:13.481Z,74.57
2018-03-27T05:11:40.513Z,72.90
2018-03-27T05:14:07.583Z,74.50
2018-03-27T05:16:35.490Z,78.03
2018-03-27T05:19:02.506Z,72.37
2018-03-27T05:21:29.572Z,70.00
2018-03-27T05:23:57.091Z,72.30
2018-03-27T05:26:24.139Z,70.60
2018-03-27T05:28:51.176Z,73.63
2018-03-27T05:31:18.784Z,75.33
2018-03-27T05:33:45.830Z,80.20
2018-03-27T05:36:12.865Z,80.20
2018-03-27T05:38:39.951Z,85.33
2018-03-27T05:41:06.986Z,75.63
2018-03-27T05:43:34.029Z,79.60
2018-03-27T05:46:06.318Z,72.10
2018-03-27T05:48:33.872Z,75.80
2018-03-27T05:51:00.928Z,73.90
2018-03-27T05:53:28.487Z,71.73
2018-03-27T05:55:56.501Z,83.10
2018-03-27T05:58:23.495Z,76.57
2018-03-27T06:00:50.641Z,77.97
2018-03-27T06:03:18.588Z,73.73
2018-03-27T06:05:46.584Z,73.33
2018-03-27T06:08:14.569Z,77.97
2018-03-27T06:13:23.422Z,75.37
2018-03-27T06:15:52.621Z,76.30
2018-03-27T06:20:59.494Z,83.47
2018-03-27T06:23:26.526Z,73.27
2018-03-27T06:25:53.626Z,82.13
2018-03-27T06:28:21.710Z,77.37
2018-03-27T06:30:48.703Z,82.20
2018-03-27T06:33:15.776Z,83.97
2018-03-27T06:35:43.709Z,81.70
2018-03-27T06:38:11.957Z,83.70
2018-03-27T06:40:40.237Z,79.33
2018-03-27T06:43:08.929Z,85.00
2018-03-27T06:45:35.980Z,87.40
2018-03-27T06:48:03.034Z,89.93
2018-03-27T06:50:30.132Z,87.47
2018-03-27T06:52:57.210Z,87.10
2018-03-27T06:55:24.255Z,75.73
2018-03-27T06:57:51.335Z,75.87
2018-03-27T07:00:18.443Z,74.70
2018-03-27T07:02:46.315Z,79.43
2018-03-27T07:05:14.320Z,74.67
2018-03-27T07:07:41.376Z,73.93
2018-03-27T07:10:09.384Z,66.13
2018-03-27T07:12:36.466Z,69.60
2018-03-27T07:15:03.527Z,65.73
2018-03-27T07:17:30.574Z,72.77
2018-03-27T07:19:57.687Z,65.40
2018-03-27T07:22:24.717Z,66.73
2018-03-27T07:24:51.746Z,62.03
2018-03-27T07:27:18.817Z,62.40
2018-03-27T07:29:47.954Z,60.63
2018-03-27T07:32:14.991Z,64.97
2018-03-27T07:34:43.870Z,55.37
2018-03-27T07:37:11.884Z,59.73
2018-03-27T07:39:39.864Z,62.63
2018-03-27T07:42:06.960Z,60.97
2018-03-27T07:47:13.975Z,67.50
2018-03-27T07:49:41.025Z,63.17
2018-03-27T07:52:08.069Z,59.77
2018-03-27T07:54:35.146Z,58.10
2018-03-27T07:57:02.198Z,59.63
2018-03-27T07:59:29.254Z,55.83
2018-03-27T08:01:57.104Z,62.40
2018-03-27T08:04:27.832Z,59.77
2018-03-27T08:06:55.604Z,60.20
2018-03-27T08:09:23.632Z,57.57
2018-03-27T08:11:51.642Z,55.50
2018-03-27T08:14:18.690Z,54.17
2018-03-27T08:16:45.752Z,52.13
2018-03-27T08:19:12.796Z,51.07
2018-03-27T08:21:40.941Z,50.13
2018-03-27T08:24:10.229Z,46.97
2018-03-27T08:29:20.874Z,52.40
2018-03-27T08:31:47.947Z,47.70
2018-03-27T08:34:14.981Z,45.17
2018-03-27T08:36:42.062Z,45.03
2018-03-27T08:39:09.103Z,50.20
2018-03-27T08:41:36.811Z,44.73
2018-03-27T08:44:03.892Z,43.43
2018-03-27T08:46:30.936Z,41.30
2018-03-27T08:48:58.089Z,41.47
2018-03-27T08:51:25.188Z,39.30
2018-03-27T08:53:52.222Z,37.47
2018-03-27T08:56:20.140Z,38.17
2018-03-27T09:01:28.216Z,43.28
2018-03-27T09:03:55.303Z,40.80
2018-03-27T09:06:23.327Z,38.87
2018-03-27T09:08:50.339Z,38.37
2018-03-27T09:11:18.397Z,41.97
2018-03-27T09:13:46.383Z,34.53
2018-03-27T09:16:13.499Z,36.73
2018-03-27T09:18:40.508Z,35.60
2018-03-27T09:21:07.634Z,33.53
2018-03-27T09:23:34.698Z,34.83
2018-03-27T09:26:01.802Z,29.07
2018-03-27T09:28:28.841Z,31.50
2018-03-27T09:30:56.226Z,33.70
2018-03-27T09:33:23.327Z,37.87
2018-03-27T09:38:29.177Z,32.60
2018-03-27T09:40:57.020Z,33.33
2018-03-27T09:43:25.013Z,27.50
2018-03-27T09:45:53.112Z,28.57
2018-03-27T09:48:21.010Z,26.70
2018-03-27T09:50:48.070Z,22.93
2018-03-27T09:53:16.079Z,32.57
2018-03-27T09:55:44.119Z,26.73
2018-03-27T09:58:12.800Z,21.80
2018-03-27T10:00:40.866Z,28.13
2018-03-27T10:03:08.858Z,29.07
2018-03-27T10:05:35.933Z,25.57
2018-03-27T10:08:03.073Z,27.03
2018-03-27T10:10:30.151Z,24.50
2018-03-27T10:12:57.208Z,28.90
2018-03-27T10:15:27.465Z,23.43
2018-03-27T10:20:38.902Z,24.55
2018-03-27T10:23:06.897Z,19.80
2018-03-27T10:28:14.078Z,22.33
2018-03-27T10:33:24.230Z,19.87
2018-03-27T10:38:29.939Z,18.58
2018-03-27T10:41:00.585Z,18.07
2018-03-27T10:43:29.924Z,15.00
2018-03-27T10:46:11.995Z,15.67
2018-03-27T10:48:43.951Z,13.93
2018-03-27T10:51:13.786Z,15.57
2018-03-27T10:53:42.145Z,13.63
2018-03-27T10:56:12.633Z,15.00
2018-03-27T10:58:39.711Z,12.63
2018-03-27T11:01:12.288Z,11.80
2018-03-27T11:03:42.206Z,11.93
2018-03-27T11:06:12.005Z,9.53
2018-03-27T11:11:35.085Z,9.20
2018-03-27T11:14:09.548Z,9.53
2018-03-27T11:16:39.530Z,11.20
2018-03-27T11:21:50.050Z,10.77
2018-03-27T11:24:17.166Z,8.67
2018-03-27T11:29:28.829Z,12.93
2018-03-27T11:31:56.611Z,8.97
2018-03-27T11:34:23.681Z,9.63
2018-03-27T11:36:50.822Z,12.77
2018-03-27T11:41:50.762Z,11.70
2018-03-27T11:44:20.195Z,8.90
2018-03-27T11:46:55.934Z,10.57
2018-03-27T11:53:36.748Z,8.77
2018-03-27T12:04:09.052Z,15.33
2018-03-27T12:06:39.528Z,15.07
2018-03-27T12:11:56.531Z,11.63
2018-03-27T12:17:09.629Z,11.52
2018-03-27T12:19:43.241Z,12.40
2018-03-27T12:22:20.736Z,14.63
2018-03-27T12:46:55.176Z,12.43
2018-03-27T12:49:23.283Z,17.20
2018-03-27T12:51:52.924Z,14.37
2018-03-27T12:57:15.046Z,18.35
2018-03-27T12:59:59.250Z,16.33
2018-03-27T13:05:16.806Z,18.52
2018-03-27T13:10:34.928Z,17.20
2018-03-27T13:13:03.819Z,16.33
2018-03-27T13:15:31.154Z,17.83
2018-03-27T13:18:14.846Z,19.13
2018-03-27T13:26:11.996Z,14.52
2018-03-27T13:32:20.738Z,15.50
2018-03-27T13:34:50.089Z,13.63
2018-03-27T13:40:52.630Z,13.83
2018-03-27T13:46:09.618Z,13.32
2018-03-27T13:48:36.745Z,11.30
2018-03-27T13:51:03.889Z,11.97
2018-03-27T13:56:16.643Z,13.13
2018-03-27T13:58:49.379Z,12.20
2018-03-27T14:15:02.074Z,14.37
2018-03-27T14:20:19.620Z,14.40
2018-03-27T14:22:48.497Z,13.87
2018-03-27T14:27:54.226Z,13.20
2018-03-27T14:30:24.387Z,11.87
2018-03-27T14:32:55.344Z,12.43
2018-03-27T14:35:23.673Z,12.20
2018-03-27T14:37:52.770Z,10.83
2018-03-27T14:40:20.644Z,11.97
2018-03-27T14:42:48.180Z,13.53
2018-03-27T14:50:27.232Z,13.50
2018-03-27T14:53:01.146Z,12.20
2018-03-27T14:55:28.251Z,11.47
2018-03-27T15:00:41.765Z,12.73
2018-03-27T15:03:08.832Z,12.23
2018-03-27T15:05:35.887Z,11.13
2018-03-27T15:08:02.985Z,10.70
2018-03-27T15:10:30.046Z,10.13
2018-03-27T15:12:57.116Z,13.47
2018-03-27T15:15:24.250Z,12.20
2018-03-27T15:17:52.257Z,10.47
2018-03-27T15:20:20.574Z,9.90
2018-03-27T15:22:48.408Z,12.83
2018-03-27T15:25:16.617Z,12.67
2018-03-27T15:27:44.860Z,12.43
2018-03-27T15:30:11.978Z,11.13
2018-03-27T15:32:39.048Z,8.47
2018-03-27T15:35:06.653Z,11.63
2018-03-27T15:37:34.090Z,9.07
2018-03-27T15:40:01.157Z,10.80
2018-03-27T15:42:31.994Z,7.80
2018-03-27T15:44:59.792Z,11.70
2018-03-27T15:47:29.488Z,9.80
2018-03-27T15:49:58.328Z,11.00
2018-03-27T15:52:27.087Z,13.60
2018-03-27T15:54:55.114Z,10.43
2018-03-27T15:57:23.052Z,10.97
2018-03-27T15:59:51.382Z,13.83
2018-03-27T16:02:18.512Z,10.63
2018-03-27T16:04:45.770Z,9.73
2018-03-27T16:07:13.245Z,12.20
2018-03-27T16:09:43.340Z,10.57
2018-03-27T16:12:10.430Z,9.00
2018-03-27T16:14:38.672Z,13.93
2018-03-27T16:17:05.716Z,11.00
2018-03-27T16:19:32.760Z,10.37
2018-03-27T16:21:59.839Z,10.07
2018-03-27T16:27:10.887Z,9.10
2018-03-27T16:29:38.381Z,9.33
2018-03-27T16:32:07.352Z,11.07
2018-03-27T16:34:34.447Z,10.30
2018-03-27T16:37:01.508Z,11.97
2018-03-27T16:39:29.057Z,9.70
2018-03-27T16:44:36.200Z,12.00
2018-03-27T16:47:05.280Z,11.37
2018-03-27T16:49:32.897Z,14.10
2018-03-27T16:52:00.820Z,12.53
2018-03-27T16:54:28.328Z,12.17
2018-03-27T16:56:55.405Z,12.20
2018-03-27T16:59:22.507Z,9.73
2018-03-27T17:01:51.508Z,10.63
2018-03-27T17:04:20.037Z,11.63
2018-03-27T17:06:47.559Z,15.20
2018-03-27T17:09:15.408Z,11.50
2018-03-27T17:11:42.495Z,12.00
2018-03-27T17:14:10.890Z,11.47
2018-03-27T17:16:36.783Z,13.23
2018-03-27T17:19:07.692Z,14.00
2018-03-27T17:24:21.143Z,11.27
2018-03-27T17:26:48.209Z,11.83
2018-03-27T17:29:15.731Z,11.03
2018-03-27T17:31:49.009Z,16.47
2018-03-27T17:34:16.645Z,15.53
2018-03-27T17:36:44.794Z,15.43
2018-03-27T17:39:12.851Z,19.23
2018-03-27T17:41:40.851Z,16.03
2018-03-27T17:44:08.753Z,17.63
2018-03-27T17:46:35.933Z,16.73
2018-03-27T17:49:03.867Z,16.70
2018-03-27T17:51:32.040Z,16.90
2018-03-27T17:54:01.080Z,17.90
2018-03-27T17:56:28.264Z,16.90
2018-03-27T17:59:00.346Z,19.97
2018-03-27T18:01:27.436Z,19.87
2018-03-27T18:03:59.817Z,20.27
2018-03-27T18:06:34.523Z,19.27
2018-03-27T18:09:03.166Z,17.00
2018-03-27T18:11:32.702Z,19.00
2018-03-27T18:16:43.015Z,20.02
2018-03-27T18:21:44.240Z,21.43
2018-03-27T18:24:16.209Z,18.93
2018-03-27T18:29:25.844Z,23.45
2018-03-27T18:31:52.948Z,20.27
2018-03-27T18:34:19.984Z,21.67
2018-03-27T18:36:47.070Z,19.90
2018-03-27T18:39:14.175Z,19.63
2018-03-27T18:41:41.776Z,21.57
2018-03-27T18:44:08.799Z,21.17
2018-03-27T18:49:15.890Z,21.20
2018-03-27T18:51:43.206Z,19.80
2018-03-27T18:54:10.226Z,20.97
2018-03-27T18:56:37.302Z,24.50
2018-03-27T18:59:04.376Z,23.50
2018-03-27T19:01:31.405Z,22.80
2018-03-27T19:03:58.469Z,24.53
2018-03-27T19:06:25.570Z,22.93
2018-03-27T19:08:52.600Z,24.03
2018-03-27T19:11:19.774Z,22.20
2018-03-27T19:13:46.799Z,21.30
2018-03-27T19:16:13.850Z,19.67
2018-03-27T19:18:40.878Z,22.20
2018-03-27T19:21:08.114Z,19.40
2018-03-27T19:23:35.202Z,16.83
2018-03-27T19:26:03.252Z,20.53
2018-03-27T19:28:30.311Z,19.53
2018-03-27T19:30:57.409Z,20.30
2018-03-27T19:33:25.300Z,21.10
2018-03-27T19:35:52.385Z,18.53
2018-03-27T19:38:19.424Z,17.57
2018-03-27T19:40:46.471Z,17.50
2018-03-27T19:43:13.712Z,18.90
2018-03-27T19:45:40.772Z,19.00
2018-03-27T19:48:07.808Z,16.93
2018-03-27T19:50:34.980Z,19.20
2018-03-27T19:53:01.998Z,20.17
2018-03-27T19:55:29.045Z,16.97
2018-03-27T20:00:36.122Z,18.20
2018-03-27T20:03:03.266Z,18.97
2018-03-27T20:05:31.233Z,16.90
2018-03-27T20:08:00.940Z,17.40
2018-03-27T20:10:26.114Z,17.63
2018-03-27T20:12:54.148Z,18.10
2018-03-27T20:15:21.360Z,18.60
2018-03-27T20:17:48.448Z,21.43
2018-03-27T20:20:15.510Z,17.50
2018-03-27T20:22:42.536Z,19.13
2018-03-27T20:25:09.594Z,16.90
2018-03-27T20:27:36.612Z,20.80
2018-03-27T20:30:03.642Z,22.67
2018-03-27T20:32:30.912Z,18.37
2018-03-27T20:34:57.768Z,20.83
2018-03-27T20:37:24.806Z,21.87
2018-03-27T20:39:51.985Z,20.77
2018-03-27T20:42:19.018Z,19.67
2018-03-27T20:44:46.040Z,17.73
2018-03-27T20:47:16.484Z,15.40
2018-03-27T20:49:43.503Z,17.17
2018-03-27T20:52:10.625Z,18.73
2018-03-27T20:54:37.721Z,18.87
2018-03-27T20:57:04.750Z,16.60
2018-03-27T20:59:33.027Z,16.53
2018-03-27T21:02:00.089Z,19.23
2018-03-27T21:04:27.139Z,16.87
2018-03-27T21:06:54.160Z,15.30
2018-03-27T21:09:21.390Z,15.73
2018-03-27T21:11:48.450Z,15.10
2018-03-27T21:14:15.569Z,15.17
2018-03-27T21:16:42.671Z,15.53
2018-03-27T21:19:09.680Z,16.37
2018-03-27T21:21:36.697Z,12.63
2018-03-27T21:24:03.959Z,11.30
2018-03-27T21:29:09.523Z,13.68
2018-03-27T21:31:36.553Z,10.50
2018-03-27T21:34:03.712Z,13.37
2018-03-27T21:36:30.852Z,14.93
2018-03-27T21:38:57.884Z,11.37
2018-03-27T21:41:24.915Z,15.73
2018-03-27T21:43:51.968Z,9.10
2018-03-27T21:46:19.006Z,12.67
2018-03-27T21:48:46.038Z,12.17
2018-03-27T21:51:15.242Z,10.57
2018-03-27T21:53:42.292Z,13.10
2018-03-27T21:56:10.290Z,11.60
2018-03-27T21:58:37.381Z,11.83
2018-03-27T22:01:04.434Z,15.93
2018-03-27T22:03:38.397Z,12.43
2018-03-27T22:06:05.413Z,10.23
2018-03-27T22:08:32.458Z,11.20
2018-03-27T22:13:37.746Z,16.35
2018-03-27T22:16:06.352Z,18.20
2018-03-27T22:18:33.433Z,18.23
2018-03-27T22:21:00.448Z,17.40
2018-03-27T22:23:27.549Z,17.90
2018-03-27T22:25:54.575Z,18.47
2018-03-27T22:31:03.061Z,18.13
2018-03-27T22:33:30.105Z,18.53
2018-03-27T22:35:57.477Z,17.27
2018-03-27T22:38:24.549Z,17.97
2018-03-27T22:40:53.927Z,17.97
2018-03-27T22:43:20.864Z,18.77
2018-03-27T22:45:48.051Z,21.23
2018-03-27T22:48:15.092Z,21.27
2018-03-27T22:50:42.130Z,19.70
2018-03-27T22:53:09.213Z,22.57
2018-03-27T22:55:36.257Z,23.73
2018-03-27T22:58:03.300Z,23.33
2018-03-27T23:00:31.341Z,23.63
2018-03-27T23:02:58.714Z,25.90
2018-03-27T23:05:26.566Z,21.10
2018-03-27T23:07:53.659Z,22.40
2018-03-27T23:10:20.695Z,22.33
2018-03-27T23:12:47.740Z,23.90
2018-03-27T23:15:14.825Z,24.13
2018-03-27T23:17:41.877Z,23.10
2018-03-27T23:20:09.013Z,23.60
2018-03-27T23:22:36.082Z,20.50
2018-03-27T23:25:03.117Z,25.27
2018-03-27T23:27:30.172Z,23.27
2018-03-27T23:29:57.274Z,25.83
2018-03-27T23:32:24.309Z,26.03
2018-03-27T23:37:29.896Z,29.20
2018-03-27T23:39:57.774Z,23.70
2018-03-27T23:42:24.810Z,27.63
2018-03-27T23:44:52.852Z,25.73
2018-03-27T23:47:19.890Z,26.23
2018-03-27T23:49:47.896Z,25.43
2018-03-27T23:52:14.983Z,26.03
2018-03-27T23:54:42.038Z,25.70
2018-03-27T23:57:09.914Z,25.90
2018-03-27T23:59:37.003Z,24.03
